1. W odpowiedzi do

    En 32 minutos marica jqbzjajzjazjajsja

  2. A teraz jeszcze tydzień... módlcie sie za mnie

    Pokaż ten wątek
  3. W odpowiedzi do

    nawet jeśli przytyjesz to to tylko waga wodna, jesteś w stanie ja zgubić w tydzień pijąc zioła osobiście polecam lesinelle, nie mam żadnych efektów ubocznych

  4. W odpowiedzi do

    No narniaaaa

  5. YBCS 150330Z 06014KT 9999 FEW030 BKN300 32/21 Q1007 NOSIG

  6. ¡Mira la transmisión de mi PlayStation 4! (Tom Clancy's Rainbow Six® Siege) live at

  7. Topo a P.I.M.P 🤷🏻‍♀️🤤😆

  8. Było włamanie do mojego dziadka i taty zakładu ,tydzień przed wigilia masakra